Time;durP1;ratioP1;P1;durP2;ratioP2;P2;SDS_P1;SDS_P2;PMS_P1;PMS_P2;Temp;Humidity;BMP_temperature;BMP_pressure;BME280_temperature;BME280_humidity;BME280_pressure;Samples;Min_cycle;Max_cycle;Signal;HPM_P1;HPM_P2
2023/10/04 00:01:41;;;;;;;13.10;3.08;;;26.50;47.70;;;;;;5077160;28;20472;-66
2023/10/04 00:04:10;;;;;;;8.77;2.75;;;26.70;47.40;;;;;;5052582;28;20119;-65
2023/10/04 00:06:37;;;;;;;10.43;2.75;;;26.60;47.70;;;;;;5071856;28;20074;-68
2023/10/04 00:09:05;;;;;;;7.60;2.63;;;26.30;47.80;;;;;;5066869;28;20032;-66
2023/10/04 00:11:32;;;;;;;8.93;2.70;;;26.20;48.10;;;;;;5066377;28;20100;-66
2023/10/04 00:13:59;;;;;;;12.80;3.33;;;25.90;48.80;;;;;;5067100;28;20036;-67
2023/10/04 00:16:27;;;;;;;12.90;2.80;;;25.80;49.20;;;;;;5072183;28;20028;-66
2023/10/04 00:18:54;;;;;;;11.18;3.15;;;25.80;49.30;;;;;;5074228;28;20025;-66
2023/10/04 00:21:22;;;;;;;10.63;2.55;;;25.80;49.50;;;;;;5077874;28;20017;-66
2023/10/04 00:23:49;;;;;;;8.15;2.70;;;25.70;50.10;;;;;;5067314;28;20440;-66
2023/10/04 00:26:18;;;;;;;8.18;2.47;;;25.60;49.70;;;;;;5073748;28;20127;-66
2023/10/04 00:28:45;;;;;;;10.13;2.85;;;25.60;50.00;;;;;;5075529;28;20073;-67
2023/10/04 00:31:13;;;;;;;12.63;3.03;;;25.70;50.00;;;;;;5074749;28;20024;-66
2023/10/04 00:33:40;;;;;;;13.38;3.03;;;25.70;50.10;;;;;;5068247;28;20017;-65
2023/10/04 00:36:08;;;;;;;12.32;3.00;;;25.80;50.10;;;;;;5068171;28;20047;-66
2023/10/04 00:38:35;;;;;;;10.95;3.30;;;25.60;50.50;;;;;;5068285;28;20078;-66
2023/10/04 00:41:07;;;;;;;11.00;2.83;;;25.60;50.60;;;;;;5055889;28;20111;-65
2023/10/04 00:43:46;;;;;;;10.52;3.03;;;25.60;50.60;;;;;;5068340;28;20012;-67
2023/10/04 00:46:13;;;;;;;12.10;3.20;;;25.70;50.40;;;;;;5083886;28;20043;-67
2023/10/04 00:48:41;;;;;;;7.15;2.70;;;25.40;51.00;;;;;;5051033;28;20056;-67
2023/10/04 00:51:09;;;;;;;13.65;3.30;;;25.30;51.60;;;;;;5057276;28;20025;-66
2023/10/04 00:53:36;;;;;;;9.88;2.55;;;25.40;51.60;;;;;;5052643;28;20036;-67
2023/10/04 00:56:04;;;;;;;9.73;2.55;;;25.50;51.40;;;;;;5056878;28;20107;-65
2023/10/04 00:58:31;;;;;;;11.48;3.13;;;25.40;51.80;;;;;;5053732;28;20032;-69
2023/10/04 01:00:58;;;;;;;12.30;2.95;;;25.30;52.20;;;;;;5056975;28;20025;-63
2023/10/04 01:03:30;;;;;;;11.98;2.75;;;25.40;52.40;;;;;;5056427;28;20029;-66
2023/10/04 01:06:00;;;;;;;10.00;3.20;;;25.30;52.70;;;;;;5057995;28;20032;-65
2023/10/04 01:08:28;;;;;;;10.70;2.90;;;25.30;54.70;;;;;;5055002;28;20038;-66
2023/10/04 01:10:56;;;;;;;12.30;2.63;;;25.10;57.30;;;;;;5056099;28;20151;-65
2023/10/04 01:13:26;;;;;;;15.65;2.78;;;24.70;59.10;;;;;;5056153;28;20054;-65
2023/10/04 01:15:59;;;;;;;12.00;2.65;;;24.50;58.80;;;;;;5054693;28;20062;-64
2023/10/04 01:18:30;;;;;;;8.20;2.88;;;24.40;59.80;;;;;;5055058;28;20028;-65
2023/10/04 01:20:57;;;;;;;12.00;3.15;;;24.40;60.50;;;;;;5053799;28;20025;-65
2023/10/04 01:23:24;;;;;;;11.80;3.00;;;24.60;59.30;;;;;;5055350;28;20066;-66
2023/10/04 01:25:52;;;;;;;11.75;2.92;;;24.70;59.50;;;;;;5054027;28;20044;-65
2023/10/04 01:28:28;;;;;;;12.20;3.10;;;24.80;59.00;;;;;;5053378;28;20470;-65
2023/10/04 01:30:58;;;;;;;13.87;3.27;;;24.80;58.20;;;;;;5050347;28;20024;-66
2023/10/04 01:33:25;;;;;;;11.52;3.83;;;24.80;57.90;;;;;;5054011;28;20043;-66
2023/10/04 01:35:54;;;;;;;7.95;2.55;;;24.80;58.70;;;;;;5051434;28;20025;-66
2023/10/04 01:38:25;;;;;;;11.48;2.97;;;24.80;58.00;;;;;;5053354;28;20052;-65
2023/10/04 01:40:54;;;;;;;11.70;3.40;;;24.70;58.50;;;;;;5051631;28;20043;-66
2023/10/04 01:43:24;;;;;;;13.48;2.85;;;24.70;58.70;;;;;;5051007;28;20531;-66
2023/10/04 01:45:57;;;;;;;11.30;2.85;;;24.60;58.20;;;;;;5049777;28;20033;-65
2023/10/04 01:48:26;;;;;;;11.75;3.58;;;24.70;58.20;;;;;;5051963;28;20020;-65
2023/10/04 01:50:54;;;;;;;9.07;3.33;;;24.70;58.40;;;;;;5056153;28;20021;-64
2023/10/04 01:53:24;;;;;;;12.52;3.45;;;24.70;58.40;;;;;;5068890;28;20028;-66
2023/10/04 01:55:52;;;;;;;14.40;3.67;;;24.70;58.40;;;;;;5066891;28;20392;-66
2023/10/04 01:58:22;;;;;;;11.85;3.13;;;24.70;58.60;;;;;;5068067;28;20097;-65
2023/10/04 02:01:00;;;;;;;10.00;2.72;;;24.70;58.80;;;;;;5075287;28;20016;-68
2023/10/04 02:03:28;;;;;;;15.60;3.60;;;24.80;58.70;;;;;;5069598;28;20013;-66
2023/10/04 02:05:58;;;;;;;9.48;2.83;;;24.80;58.40;;;;;;5055393;28;20040;-66
2023/10/04 02:08:28;;;;;;;11.90;3.03;;;24.90;58.00;;;;;;5057198;28;20024;-66
2023/10/04 02:10:56;;;;;;;10.23;3.13;;;24.90;58.30;;;;;;5056111;28;20032;-66
2023/10/04 02:13:25;;;;;;;16.10;3.47;;;25.00;58.30;;;;;;5068779;28;20036;-66
2023/10/04 02:15:53;;;;;;;11.32;3.72;;;24.90;58.10;;;;;;5076700;28;20020;-65
2023/10/04 02:18:21;;;;;;;11.73;2.80;;;24.90;58.10;;;;;;5074816;28;20021;-66
2023/10/04 02:20:53;;;;;;;16.02;3.80;;;25.00;58.40;;;;;;5072596;28;20032;-66
2023/10/04 02:23:21;;;;;;;11.15;2.92;;;25.00;58.20;;;;;;5075867;28;20036;-67
2023/10/04 02:25:48;;;;;;;10.65;2.78;;;25.00;58.00;;;;;;5075685;28;20081;-66
2023/10/04 02:28:22;;;;;;;12.35;3.03;;;25.00;58.40;;;;;;5073361;28;20040;-66
2023/10/04 02:30:53;;;;;;;11.55;2.72;;;25.10;59.00;;;;;;5058011;28;20024;-67
2023/10/04 02:33:22;;;;;;;13.23;3.15;;;25.20;58.20;;;;;;5082199;28;20020;-67
2023/10/04 02:35:50;;;;;;;10.52;3.17;;;25.00;58.10;;;;;;5081343;28;20032;-69
2023/10/04 02:38:31;;;;;;;9.57;2.88;;;25.10;57.90;;;;;;5061645;28;20020;-66
2023/10/04 02:41:01;;;;;;;14.02;3.55;;;25.00;58.00;;;;;;5057189;28;20064;-66
2023/10/04 02:43:28;;;;;;;10.85;3.67;;;24.90;58.40;;;;;;5081390;28;20298;-67
2023/10/04 02:45:57;;;;;;;10.52;2.53;;;25.00;58.30;;;;;;5082365;28;20388;-66
2023/10/04 02:48:24;;;;;;;14.75;3.33;;;24.90;58.20;;;;;;5081435;28;20495;-67
2023/10/04 02:50:52;;;;;;;14.80;3.25;;;24.90;58.30;;;;;;5076440;28;20487;-66
2023/10/04 02:53:25;;;;;;;9.57;3.33;;;24.90;58.50;;;;;;5082572;28;20107;-68
2023/10/04 02:55:57;;;;;;;15.32;3.53;;;25.00;58.40;;;;;;5083413;28;20470;-66
2023/10/04 02:58:25;;;;;;;14.48;2.78;;;25.10;57.90;;;;;;5080920;28;20495;-66
2023/10/04 03:00:54;;;;;;;8.93;3.20;;;25.20;57.70;;;;;;5080221;28;20077;-66
2023/10/04 03:03:24;;;;;;;12.35;3.13;;;25.30;57.40;;;;;;5078258;28;20036;-66
2023/10/04 03:05:54;;;;;;;13.48;3.38;;;25.40;57.10;;;;;;5084620;28;20099;-66
2023/10/04 03:08:23;;;;;;;11.02;3.38;;;25.20;57.70;;;;;;5082082;28;20085;-66
2023/10/04 03:10:51;;;;;;;13.20;3.20;;;25.10;58.00;;;;;;5076691;28;20029;-66
2023/10/04 03:13:25;;;;;;;9.02;2.80;;;25.10;57.80;;;;;;5080896;28;20024;-66
2023/10/04 03:15:54;;;;;;;13.65;3.08;;;25.10;57.80;;;;;;5073754;28;20020;-67
2023/10/04 03:18:25;;;;;;;15.63;3.10;;;25.10;58.00;;;;;;5076593;28;20338;-67
2023/10/04 03:23:32;;;;;;;13.43;3.20;;;25.00;58.50;;;;;;5077322;28;20025;-66
2023/10/04 03:26:01;;;;;;;11.32;3.17;;;24.90;59.30;;;;;;5080821;28;20042;-66
2023/10/04 03:28:33;;;;;;;11.50;3.30;;;24.80;59.00;;;;;;5073752;28;20016;-66
2023/10/04 03:31:08;;;;;;;13.00;3.30;;;24.80;59.10;;;;;;5072296;28;20031;-66
2023/10/04 03:33:36;;;;;;;11.52;3.20;;;24.70;60.00;;;;;;5071521;28;20024;-67
2023/10/04 03:36:06;;;;;;;14.52;3.03;;;24.60;60.40;;;;;;5072762;28;20096;-66
2023/10/04 03:38:39;;;;;;;12.77;2.97;;;24.60;60.60;;;;;;5072170;28;20036;-66
2023/10/04 03:41:07;;;;;;;9.73;2.50;;;24.60;62.30;;;;;;5068022;28;20021;-66
2023/10/04 03:43:37;;;;;;;11.68;3.75;;;24.50;63.70;;;;;;5069362;28;20150;-67
2023/10/04 03:46:22;;;;;;;13.07;3.70;;;24.30;66.10;;;;;;5071101;28;20441;-65
2023/10/04 03:48:51;;;;;;;13.77;3.33;;;24.20;68.10;;;;;;5077286;28;20051;-69
2023/10/04 03:51:23;;;;;;;11.63;3.03;;;24.10;66.80;;;;;;5086974;28;20023;-67
2023/10/04 03:53:53;;;;;;;15.13;3.17;;;24.00;67.30;;;;;;5072847;28;20444;-66
2023/10/04 03:56:22;;;;;;;12.57;3.10;;;24.00;66.30;;;;;;5072651;28;20055;-66
2023/10/04 03:58:50;;;;;;;12.02;3.15;;;23.90;67.60;;;;;;5075684;28;20028;-66
2023/10/04 04:01:19;;;;;;;13.95;3.30;;;23.70;69.90;;;;;;5078017;28;20020;-65
2023/10/04 04:03:49;;;;;;;11.32;3.00;;;23.40;72.70;;;;;;5067713;28;20017;-65
2023/10/04 04:06:16;;;;;;;11.10;2.65;;;23.50;72.60;;;;;;5069912;28;20036;-65
2023/10/04 04:08:46;;;;;;;17.67;3.05;;;23.50;73.10;;;;;;5075505;28;20025;-67
2023/10/04 04:11:14;;;;;;;13.18;4.03;;;23.40;71.30;;;;;;5076623;28;20394;-66
2023/10/04 04:13:42;;;;;;;13.60;3.40;;;23.50;72.30;;;;;;5077020;28;20024;-66
2023/10/04 04:16:12;;;;;;;15.73;3.10;;;23.60;71.10;;;;;;5074644;28;20784;-66
2023/10/04 04:18:39;;;;;;;11.38;3.13;;;23.60;71.10;;;;;;5069283;28;20036;-65
2023/10/04 04:21:07;;;;;;;13.88;3.33;;;23.70;70.90;;;;;;5055852;28;20032;-65
2023/10/04 04:23:35;;;;;;;11.63;2.83;;;23.80;70.80;;;;;;5077398;28;20031;-65
2023/10/04 04:26:05;;;;;;;13.35;2.97;;;23.80;69.10;;;;;;5079806;28;20032;-65
2023/10/04 04:28:35;;;;;;;12.32;3.65;;;23.70;70.00;;;;;;5060940;28;20040;-64
2023/10/04 04:31:15;;;;;;;13.88;2.88;;;23.70;69.60;;;;;;5047286;28;20036;-66
2023/10/04 04:33:43;;;;;;;10.55;2.78;;;23.70;70.80;;;;;;5065279;28;20079;-66
2023/10/04 04:36:19;;;;;;;9.93;3.03;;;23.80;69.70;;;;;;5063891;28;20119;-66
2023/10/04 04:38:47;;;;;;;10.43;2.70;;;23.90;68.80;;;;;;5071669;28;20110;-65
2023/10/04 04:41:20;;;;;;;11.15;2.58;;;23.90;68.40;;;;;;5059196;28;20025;-65
2023/10/04 04:43:49;;;;;;;8.85;2.75;;;23.90;67.10;;;;;;5076546;28;20039;-67
2023/10/04 04:46:18;;;;;;;22.33;3.25;;;24.00;67.70;;;;;;5073006;28;20048;-66
2023/10/04 04:48:47;;;;;;;12.98;2.72;;;23.90;68.10;;;;;;5076101;28;20047;-66
2023/10/04 04:51:15;;;;;;;11.57;3.22;;;23.70;70.20;;;;;;5066408;28;20039;-64
2023/10/04 04:53:43;;;;;;;9.15;2.85;;;23.40;72.70;;;;;;5074676;28;20025;-67
2023/10/04 04:56:14;;;;;;;11.13;2.70;;;23.30;71.20;;;;;;5050837;28;20033;-67
2023/10/04 04:58:49;;;;;;;10.95;2.88;;;23.10;72.80;;;;;;5069171;28;20111;-66
2023/10/04 05:01:23;;;;;;;9.40;2.60;;;23.10;73.70;;;;;;5069940;28;20032;-67
2023/10/04 05:03:51;;;;;;;12.02;3.50;;;23.10;74.10;;;;;;5074700;28;20019;-66
2023/10/04 05:06:25;;;;;;;10.27;2.30;;;23.00;73.20;;;;;;5064741;28;20032;-66
2023/10/04 05:08:57;;;;;;;16.05;2.65;;;23.00;74.80;;;;;;5062315;28;20016;-65
2023/10/04 05:11:25;;;;;;;16.02;3.15;;;23.10;73.20;;;;;;5053429;28;20071;-65
2023/10/04 05:13:56;;;;;;;9.75;2.33;;;23.10;73.10;;;;;;5061097;28;20469;-67
2023/10/04 05:16:25;;;;;;;5.88;2.38;;;23.00;73.70;;;;;;5066780;28;20119;-66
2023/10/04 05:18:53;;;;;;;11.48;2.70;;;23.10;72.90;;;;;;5061085;28;20123;-66
2023/10/04 05:21:21;;;;;;;11.23;2.10;;;23.00;72.40;;;;;;5047760;28;20028;-66
2023/10/04 05:23:48;;;;;;;6.50;2.20;;;23.00;72.50;;;;;;5046914;28;20033;-66
2023/10/04 05:26:15;;;;;;;6.35;1.90;;;23.10;71.40;;;;;;5049329;28;20044;-66
2023/10/04 05:28:43;;;;;;;5.80;1.90;;;23.00;71.50;;;;;;5057359;28;21455;-67
2023/10/04 05:31:10;;;;;;;5.78;1.90;;;22.90;71.60;;;;;;5066229;28;20028;-66
2023/10/04 05:33:37;;;;;;;9.00;2.22;;;22.90;72.10;;;;;;5068241;28;20033;-66
2023/10/04 05:36:06;;;;;;;9.70;2.40;;;22.90;73.00;;;;;;5067793;28;20115;-66
2023/10/04 05:38:34;;;;;;;8.13;2.40;;;22.90;72.60;;;;;;5072822;28;20100;-66
2023/10/04 05:41:03;;;;;;;8.80;1.92;;;22.90;73.00;;;;;;5067228;28;20094;-68
2023/10/04 05:43:34;;;;;;;5.82;1.70;;;22.80;73.50;;;;;;5068294;28;20116;-68
2023/10/04 05:46:02;;;;;;;7.78;2.10;;;22.80;73.80;;;;;;5069140;28;20040;-66
2023/10/04 05:48:29;;;;;;;3.75;1.77;;;22.80;73.30;;;;;;5067739;28;20404;-66
2023/10/04 05:50:58;;;;;;;10.23;2.33;;;22.90;73.60;;;;;;5064721;28;20037;-66
2023/10/04 05:53:26;;;;;;;8.30;2.03;;;22.80;77.50;;;;;;5068486;28;20056;-66
2023/10/04 05:55:54;;;;;;;6.55;2.67;;;22.30;81.10;;;;;;5055178;28;20036;-67
2023/10/04 05:58:21;;;;;;;11.90;3.03;;;22.20;84.00;;;;;;5066621;28;20415;-66
2023/10/04 06:00:55;;;;;;;8.45;2.33;;;22.00;83.60;;;;;;5064633;28;20253;-67
2023/10/04 06:03:23;;;;;;;12.95;2.75;;;22.10;83.70;;;;;;5078169;28;20139;-66
2023/10/04 06:05:53;;;;;;;7.97;2.20;;;22.00;83.60;;;;;;5071798;28;20415;-68
2023/10/04 06:08:21;;;;;;;8.60;2.55;;;21.90;83.50;;;;;;5071065;28;20467;-67
2023/10/04 06:10:53;;;;;;;4.85;2.55;;;22.00;82.00;;;;;;5071920;28;20024;-67
2023/10/04 06:13:22;;;;;;;7.35;2.53;;;22.00;84.20;;;;;;5070783;28;20518;-67
2023/10/04 06:15:53;;;;;;;6.70;2.22;;;22.10;83.60;;;;;;5063516;28;20037;-67
2023/10/04 06:18:22;;;;;;;8.40;2.47;;;22.20;82.90;;;;;;5048488;28;20040;-67
2023/10/04 06:20:49;;;;;;;11.70;2.80;;;22.10;82.90;;;;;;5069623;28;20032;-70
2023/10/04 06:23:17;;;;;;;10.02;2.67;;;22.10;83.50;;;;;;5071167;28;20052;-66
2023/10/04 06:25:47;;;;;;;7.50;2.10;;;22.30;82.50;;;;;;5075651;28;20417;-67
2023/10/04 06:28:15;;;;;;;9.77;2.22;;;22.30;82.20;;;;;;5077194;28;20036;-67
2023/10/04 06:30:50;;;;;;;9.07;1.85;;;22.30;81.80;;;;;;5066807;28;20025;-66
2023/10/04 06:33:18;;;;;;;14.13;3.03;;;22.30;81.20;;;;;;5075435;28;20059;-67
2023/10/04 06:35:47;;;;;;;9.73;2.38;;;22.40;82.00;;;;;;5075220;28;20036;-66
2023/10/04 06:38:15;;;;;;;7.35;2.45;;;22.50;80.40;;;;;;5057658;28;20082;-67
2023/10/04 06:40:43;;;;;;;7.47;2.20;;;22.40;81.30;;;;;;5061925;28;20063;-66
2023/10/04 06:43:11;;;;;;;7.00;2.20;;;22.50;81.50;;;;;;5053004;28;20491;-67
2023/10/04 06:45:42;;;;;;;13.75;3.03;;;22.70;81.30;;;;;;5067332;28;20036;-66
2023/10/04 06:48:09;;;;;;;10.43;2.90;;;22.80;80.40;;;;;;5077122;28;20036;-67
2023/10/04 06:50:40;;;;;;;10.30;2.60;;;22.70;80.60;;;;;;5048437;28;20044;-70
2023/10/04 06:53:09;;;;;;;16.45;2.42;;;22.50;81.30;;;;;;5068419;28;20443;-67
2023/10/04 06:55:37;;;;;;;9.95;2.75;;;22.40;82.20;;;;;;5066018;28;20487;-68
2023/10/04 06:58:05;;;;;;;7.43;2.53;;;22.50;83.10;;;;;;5050053;28;20115;-67
2023/10/04 07:00:36;;;;;;;10.52;3.00;;;22.30;83.70;;;;;;5048567;28;20029;-68
2023/10/04 07:03:04;;;;;;;9.02;2.17;;;22.30;85.30;;;;;;5066679;28;20102;-68
2023/10/04 07:05:42;;;;;;;7.25;2.65;;;22.10;86.60;;;;;;5070480;28;20032;-68
2023/10/04 07:08:13;;;;;;;11.32;3.20;;;21.80;89.10;;;;;;5070792;28;20119;-68
2023/10/04 07:10:41;;;;;;;9.57;2.55;;;21.50;90.70;;;;;;5073936;28;20032;-67
2023/10/04 07:13:08;;;;;;;10.05;2.40;;;21.30;91.70;;;;;;5077866;28;20051;-68
2023/10/04 07:15:36;;;;;;;15.48;3.20;;;21.00;92.60;;;;;;5076726;28;20699;-68
2023/10/04 07:18:10;;;;;;;8.35;2.50;;;20.80;93.30;;;;;;5072803;28;20469;-67
2023/10/04 07:20:38;;;;;;;13.52;2.88;;;20.60;94.10;;;;;;5075281;28;20073;-68
2023/10/04 07:23:08;;;;;;;11.63;2.55;;;20.30;94.60;;;;;;5073933;28;20036;-67
2023/10/04 07:25:47;;;;;;;12.73;3.25;;;20.20;95.30;;;;;;5079737;28;20146;-67
2023/10/04 07:28:14;;;;;;;11.63;3.10;;;20.40;95.30;;;;;;5075945;28;20029;-67
2023/10/04 07:30:42;;;;;;;12.70;3.13;;;20.30;95.80;;;;;;5057836;28;20025;-65
2023/10/04 07:33:10;;;;;;;12.90;3.33;;;20.00;96.80;;;;;;5075476;28;20032;-66
2023/10/04 07:35:37;;;;;;;11.25;3.25;;;19.80;97.60;;;;;;5076588;28;20115;-66
2023/10/04 07:38:05;;;;;;;15.10;3.20;;;19.50;98.20;;;;;;5081204;28;20107;-65
2023/10/04 07:40:33;;;;;;;7.05;2.85;;;19.30;98.50;;;;;;5084315;28;20062;-64
2023/10/04 07:43:01;;;;;;;10.65;3.10;;;19.30;98.70;;;;;;5081548;28;20023;-68
2023/10/04 07:45:29;;;;;;;11.55;3.20;;;19.40;98.70;;;;;;5077366;28;20044;-65
2023/10/04 07:47:57;;;;;;;17.98;4.13;;;19.30;98.80;;;;;;5078272;28;20040;-66
2023/10/04 07:50:25;;;;;;;14.57;3.90;;;19.30;99.20;;;;;;5080588;28;20069;-66
2023/10/04 07:52:55;;;;;;;13.80;3.10;;;19.10;99.50;;;;;;5064364;28;20028;-66
2023/10/04 07:55:25;;;;;;;12.70;2.92;;;19.20;99.20;;;;;;5065113;28;20039;-67
2023/10/04 07:57:58;;;;;;;9.20;2.97;;;19.20;99.50;;;;;;5078315;28;20036;-67
2023/10/04 08:00:25;;;;;;;15.63;3.72;;;19.00;99.60;;;;;;5079325;28;20052;-67
2023/10/04 08:02:53;;;;;;;10.18;2.97;;;18.90;99.90;;;;;;5062396;28;20060;-68
2023/10/04 08:05:23;;;;;;;8.70;2.58;;;19.00;99.90;;;;;;5080826;28;20025;-67
2023/10/04 08:07:52;;;;;;;8.15;3.33;;;18.90;99.70;;;;;;5077900;28;20139;-67
2023/10/04 08:10:25;;;;;;;12.57;3.20;;;19.10;99.60;;;;;;5076657;28;20031;-66
2023/10/04 08:12:54;;;;;;;11.50;2.95;;;19.10;99.60;;;;;;5060937;28;20028;-67
2023/10/04 08:15:25;;;;;;;9.63;3.60;;;19.10;99.80;;;;;;5075959;28;20033;-68
2023/10/04 08:17:56;;;;;;;13.30;3.83;;;19.00;99.70;;;;;;5076032;28;20025;-66
2023/10/04 08:20:32;;;;;;;12.63;3.40;;;19.20;99.90;;;;;;5082556;28;20031;-68
2023/10/04 08:23:02;;;;;;;11.45;2.75;;;19.10;99.80;;;;;;5076322;28;20068;-65
2023/10/04 08:25:31;;;;;;;7.35;2.95;;;19.00;98.50;;;;;;5074316;28;20153;-67
2023/10/04 08:28:00;;;;;;;7.28;2.10;;;18.90;99.10;;;;;;5080292;28;20016;-66
2023/10/04 08:30:27;;;;;;;5.20;1.55;;;18.90;99.30;;;;;;5067358;28;20028;-66
2023/10/04 08:32:55;;;;;;;7.25;1.80;;;18.80;98.70;;;;;;5073743;28;20500;-66
2023/10/04 08:35:27;;;;;;;8.20;1.92;;;18.90;98.00;;;;;;5074229;28;20503;-66
2023/10/04 08:37:59;;;;;;;5.22;1.38;;;19.00;96.80;;;;;;5051998;28;20112;-66
2023/10/04 08:40:30;;;;;;;5.10;0.90;;;18.80;97.70;;;;;;5053337;28;20025;-66
2023/10/04 08:43:01;;;;;;;2.42;0.60;;;18.60;97.00;;;;;;5053419;28;20028;-66
2023/10/04 08:45:29;;;;;;;3.33;0.63;;;18.50;95.80;;;;;;5079343;28;20040;-66
2023/10/04 08:47:57;;;;;;;2.13;0.60;;;18.30;96.40;;;;;;5073362;28;20492;-66
2023/10/04 08:50:47;;;;;;;1.65;0.50;;;18.20;96.20;;;;;;5071224;28;20056;-66
2023/10/04 08:53:34;;;;;;;2.13;0.43;;;18.20;95.90;;;;;;5074385;28;20492;-67
2023/10/04 08:56:10;;;;;;;2.40;0.30;;;18.20;95.70;;;;;;5080633;28;20040;-67
2023/10/04 08:58:40;;;;;;;1.38;0.35;;;18.10;96.40;;;;;;5051919;28;20285;-66
2023/10/04 09:01:08;;;;;;;1.23;0.47;;;18.10;95.60;;;;;;5068475;28;20038;-64
2023/10/04 09:03:36;;;;;;;1.00;0.28;;;18.00;95.40;;;;;;5072369;28;20464;-66
2023/10/04 09:06:08;;;;;;;5.00;0.40;;;18.00;95.70;;;;;;5074961;28;20025;-65
2023/10/04 09:08:35;;;;;;;0.80;0.40;;;18.10;95.30;;;;;;5080693;28;20487;-65
2023/10/04 09:11:08;;;;;;;2.22;0.60;;;17.90;96.00;;;;;;5077189;28;20385;-65
2023/10/04 09:13:41;;;;;;;2.08;0.70;;;18.00;96.70;;;;;;5076835;28;20040;-65
2023/10/04 09:16:29;;;;;;;4.72;0.93;;;17.90;97.10;;;;;;5060948;28;20066;-66
2023/10/04 09:19:24;;;;;;;2.53;0.50;;;17.60;97.50;;;;;;5071303;28;20033;-66
2023/10/04 09:21:56;;;;;;;5.20;0.80;;;17.30;98.30;;;;;;5076288;28;20040;-65
2023/10/04 09:24:24;;;;;;;4.10;0.55;;;17.10;99.20;;;;;;5079599;28;20412;-66
2023/10/04 09:26:53;;;;;;;6.70;1.00;;;16.90;99.30;;;;;;5079266;28;20470;-67
2023/10/04 09:29:31;;;;;;;3.10;0.90;;;16.90;99.60;;;;;;5080077;28;20080;-66
2023/10/04 09:31:59;;;;;;;1.45;0.55;;;17.30;98.40;;;;;;5077098;28;20028;-66
2023/10/04 09:34:29;;;;;;;2.17;1.00;;;17.40;98.20;;;;;;5080025;28;20032;-66
2023/10/04 09:36:57;;;;;;;3.88;0.85;;;17.50;98.00;;;;;;5068449;28;20050;-66
2023/10/04 09:39:31;;;;;;;3.78;0.82;;;17.30;97.80;;;;;;5075861;28;20383;-66
2023/10/04 09:42:04;;;;;;;3.35;1.00;;;17.00;98.90;;;;;;5065675;28;20032;-66
2023/10/04 09:44:35;;;;;;;4.10;0.98;;;16.80;99.50;;;;;;5071889;28;20072;-66
2023/10/04 09:47:05;;;;;;;4.63;0.95;;;17.00;98.50;;;;;;5071363;28;20427;-65
2023/10/04 09:49:35;;;;;;;3.22;0.75;;;16.90;98.70;;;;;;5050689;28;20064;-67
2023/10/04 09:52:16;;;;;;;5.72;1.10;;;16.90;99.00;;;;;;5055474;28;20121;-66
2023/10/04 09:54:43;;;;;;;8.23;1.13;;;17.10;98.00;;;;;;5073609;28;20139;-65
2023/10/04 09:57:12;;;;;;;3.28;0.70;;;17.00;98.10;;;;;;5068425;28;20067;-65
2023/10/04 09:59:43;;;;;;;2.50;0.68;;;17.10;98.20;;;;;;5050635;28;20461;-65
2023/10/04 10:02:15;;;;;;;2.20;0.55;;;16.90;97.30;;;;;;5072900;28;20092;-65
2023/10/04 10:04:48;;;;;;;2.88;0.63;;;16.70;97.80;;;;;;5066540;28;20036;-65
2023/10/04 10:07:22;;;;;;;1.73;0.50;;;16.60;98.10;;;;;;5071223;28;20032;-66
2023/10/04 10:10:16;;;;;;;1.75;0.43;;;16.30;97.70;;;;;;5071024;28;20492;-65
2023/10/04 10:12:51;;;;;;;2.88;0.57;;;16.30;97.90;;;;;;5064773;28;20025;-65
2023/10/04 10:15:19;;;;;;;1.00;0.50;;;16.20;98.50;;;;;;5067154;28;20035;-65
2023/10/04 10:17:48;;;;;;;2.80;1.08;;;16.00;98.20;;;;;;5063380;28;20025;-65
2023/10/04 10:20:16;;;;;;;1.38;0.52;;;15.90;98.40;;;;;;5062728;28;20024;-66
2023/10/04 10:22:59;;;;;;;1.25;0.45;;;15.70;98.70;;;;;;5060766;28;20025;-66
2023/10/04 10:25:27;;;;;;;4.43;0.75;;;15.40;97.70;;;;;;5057937;28;20028;-65
2023/10/04 10:27:59;;;;;;;2.25;0.65;;;15.20;97.30;;;;;;5066731;28;20029;-66
2023/10/04 10:30:27;;;;;;;1.92;0.55;;;15.10;97.50;;;;;;5065261;28;20516;-66
2023/10/04 10:32:57;;;;;;;0.95;0.38;;;15.00;97.30;;;;;;5049182;28;20123;-65
2023/10/04 10:35:49;;;;;;;1.00;0.40;;;14.90;96.90;;;;;;5063927;28;20040;-65
2023/10/04 10:38:41;;;;;;;4.05;1.00;;;14.90;97.00;;;;;;5066842;28;20481;-67
2023/10/04 10:41:29;;;;;;;0.75;0.20;;;14.60;97.50;;;;;;5068163;28;20495;-67
2023/10/04 10:44:34;;;;;;;2.05;0.52;;;14.90;96.00;;;;;;5066847;28;20028;-66
2023/10/04 10:47:10;;;;;;;4.00;0.80;;;14.70;97.20;;;;;;5061283;28;20094;-66
2023/10/04 10:49:56;;;;;;;4.88;0.80;;;14.80;97.90;;;;;;5057799;28;20520;-67
2023/10/04 10:52:41;;;;;;;7.20;1.10;;;14.80;97.60;;;;;;5058215;28;20438;-66
2023/10/04 10:55:17;;;;;;;1.08;0.40;;;15.40;96.70;;;;;;5049552;28;20025;-65
2023/10/04 10:57:48;;;;;;;1.88;0.30;;;15.50;95.30;;;;;;5055302;28;20087;-67
2023/10/04 11:02:53;;;;;;;2.55;0.63;;;14.80;97.20;;;;;;5046849;28;20025;-66
2023/10/04 11:05:22;;;;;;;2.53;1.25;;;14.80;97.40;;;;;;5048668;28;20111;-66
2023/10/04 11:07:51;;;;;;;2.70;0.80;;;14.60;97.30;;;;;;5053499;28;20032;-66
2023/10/04 11:10:20;;;;;;;2.38;0.90;;;14.30;97.80;;;;;;5047962;28;20025;-65
2023/10/04 11:13:04;;;;;;;0.88;0.45;;;14.10;98.80;;;;;;5057247;28;20056;-65
2023/10/04 11:15:31;;;;;;;1.65;0.32;;;14.10;98.70;;;;;;5048669;28;20398;-66
2023/10/04 11:18:00;;;;;;;1.30;0.30;;;13.80;99.10;;;;;;5054826;28;20033;-65
2023/10/04 11:20:30;;;;;;;2.65;0.45;;;13.60;99.90;;;;;;5052464;28;20036;-67
2023/10/04 11:22:58;;;;;;;0.60;0.40;;;13.90;99.90;;;;;;5053809;28;20512;-67
2023/10/04 11:25:26;;;;;;;3.33;0.30;;;14.30;99.10;;;;;;5052571;28;20627;-66
2023/10/04 11:27:54;;;;;;;2.90;0.55;;;14.40;99.00;;;;;;5050752;28;20025;-66
2023/10/04 11:30:27;;;;;;;1.02;0.40;;;14.30;99.40;;;;;;5054483;28;20163;-66
2023/10/04 11:32:56;;;;;;;0.90;0.35;;;14.10;99.40;;;;;;5049397;28;20535;-66
2023/10/04 11:35:31;;;;;;;2.47;0.40;;;14.20;99.40;;;;;;5056382;28;20029;-66
2023/10/04 11:38:04;;;;;;;1.27;0.40;;;14.00;99.20;;;;;;5054805;28;20025;-67
2023/10/04 11:40:32;;;;;;;1.67;0.40;;;13.80;99.70;;;;;;5051871;28;20032;-67
2023/10/04 11:43:01;;;;;;;1.67;0.50;;;13.90;99.50;;;;;;5057280;28;20060;-67
2023/10/04 11:45:29;;;;;;;2.15;0.30;;;13.60;99.90;;;;;;5052879;28;20040;-69
2023/10/04 11:48:12;;;;;;;0.90;0.30;;;13.40;99.90;;;;;;5052501;28;20494;-69
2023/10/04 11:50:56;;;;;;;1.67;0.40;;;13.10;99.80;;;;;;5060139;28;20045;-69
2023/10/04 11:53:54;;;;;;;1.60;0.30;;;13.20;99.90;;;;;;5055706;28;20040;-68
2023/10/04 11:56:21;;;;;;;2.70;0.40;;;13.20;99.70;;;;;;5044896;28;20087;-69
2023/10/04 11:58:52;;;;;;;1.77;0.20;;;13.10;99.50;;;;;;5051445;28;20497;-68
2023/10/04 12:01:22;;;;;;;0.15;0.15;;;13.00;99.80;;;;;;5046239;28;20042;-69
2023/10/04 12:03:50;;;;;;;0.75;0.25;;;12.90;99.80;;;;;;5052265;28;20036;-69
2023/10/04 12:06:33;;;;;;;0.82;0.25;;;13.00;99.30;;;;;;5053544;28;20423;-69
2023/10/04 12:09:04;;;;;;;0.85;0.20;;;13.10;98.90;;;;;;5049026;28;20432;-69
2023/10/04 12:11:35;;;;;;;0.93;0.30;;;13.00;98.80;;;;;;5052503;28;20037;-70
2023/10/04 12:14:09;;;;;;;3.45;0.32;;;13.00;99.00;;;;;;5054771;28;20435;-68
2023/10/04 12:16:37;;;;;;;1.45;0.20;;;13.10;98.70;;;;;;5049787;28;20040;-68
2023/10/04 12:19:05;;;;;;;0.20;0.20;;;13.10;98.70;;;;;;5048703;28;20033;-69
2023/10/04 12:21:33;;;;;;;0.88;0.38;;;13.00;98.80;;;;;;5055579;28;20389;-69
2023/10/04 12:24:02;;;;;;;2.45;0.30;;;13.00;98.80;;;;;;5063699;28;20018;-69
2023/10/04 12:26:30;;;;;;;1.65;0.47;;;13.10;98.50;;;;;;5054360;28;20032;-69
2023/10/04 12:28:58;;;;;;;1.52;0.20;;;13.00;98.50;;;;;;5056167;28;20031;-69
2023/10/04 12:31:25;;;;;;;0.68;0.28;;;12.90;98.60;;;;;;5049507;28;20500;-69
2023/10/04 12:33:55;;;;;;;2.42;0.32;;;12.90;98.80;;;;;;5050975;28;20047;-69
2023/10/04 12:36:26;;;;;;;0.80;0.20;;;12.90;98.60;;;;;;5049064;28;20037;-70
2023/10/04 12:38:53;;;;;;;1.27;0.30;;;12.80;98.60;;;;;;5054301;28;20025;-69
2023/10/04 12:41:21;;;;;;;1.15;0.28;;;12.70;98.70;;;;;;5048444;28;20608;-70
2023/10/04 12:43:49;;;;;;;1.95;0.40;;;12.80;98.70;;;;;;5047805;28;20028;-69
2023/10/04 12:46:16;;;;;;;2.03;0.40;;;12.70;98.80;;;;;;5036214;28;20040;-69
2023/10/04 12:48:44;;;;;;;1.52;0.32;;;12.80;98.70;;;;;;5061544;28;20044;-69
2023/10/04 12:51:11;;;;;;;1.70;0.35;;;12.70;98.80;;;;;;5075795;28;20021;-69
2023/10/04 12:53:39;;;;;;;0.70;0.30;;;12.80;98.90;;;;;;5074417;28;20024;-70
2023/10/04 12:56:07;;;;;;;2.53;0.30;;;12.70;98.90;;;;;;5076648;28;20115;-69
2023/10/04 12:58:34;;;;;;;0.73;0.40;;;12.70;99.00;;;;;;5053661;28;20031;-71
2023/10/04 13:01:05;;;;;;;0.82;0.40;;;12.70;99.10;;;;;;5071732;28;20032;-72
2023/10/04 13:03:33;;;;;;;1.77;0.20;;;12.70;98.90;;;;;;5073738;28;20104;-69
2023/10/04 13:06:02;;;;;;;1.75;0.30;;;12.80;98.70;;;;;;5056414;28;20035;-71